sensor_id;sensor_type;location;lat;lon;timestamp;pressure;altitude;pressure_sealevel;temperature;humidity
15604;BME280;7902;49.042;9.092;2023-07-09T00:02:23;99350.78;;;27.69;41.02
15604;BME280;7902;49.042;9.092;2023-07-09T00:04:49;99345.63;;;27.67;41.76
15604;BME280;7902;49.042;9.092;2023-07-09T00:07:21;99357.84;;;27.70;41.67
15604;BME280;7902;49.042;9.092;2023-07-09T00:09:49;99350.78;;;27.69;41.57
15604;BME280;7902;49.042;9.092;2023-07-09T00:12:16;99346.19;;;27.76;41.23
15604;BME280;7902;49.042;9.092;2023-07-09T00:14:43;99344.13;;;27.78;40.93
15604;BME280;7902;49.042;9.092;2023-07-09T00:17:11;99343.91;;;27.79;40.28
15604;BME280;7902;49.042;9.092;2023-07-09T00:19:37;99347.25;;;27.75;40.35
15604;BME280;7902;49.042;9.092;2023-07-09T00:22:13;99348.72;;;27.64;40.41
15604;BME280;7902;49.042;9.092;2023-07-09T00:24:43;99357.81;;;27.76;40.68
15604;BME280;7902;49.042;9.092;2023-07-09T00:27:13;99349.75;;;27.70;40.27
15604;BME280;7902;49.042;9.092;2023-07-09T00:29:41;99350.00;;;27.68;40.50
15604;BME280;7902;49.042;9.092;2023-07-09T00:32:11;99357.28;;;27.61;40.70
15604;BME280;7902;49.042;9.092;2023-07-09T00:34:37;99355.03;;;27.52;40.94
15604;BME280;7902;49.042;9.092;2023-07-09T00:37:10;99358.94;;;27.56;40.94
15604;BME280;7902;49.042;9.092;2023-07-09T00:39:37;99355.22;;;27.57;40.90
15604;BME280;7902;49.042;9.092;2023-07-09T00:42:03;99360.41;;;27.52;40.44
15604;BME280;7902;49.042;9.092;2023-07-09T00:44:31;99363.94;;;27.52;40.52
15604;BME280;7902;49.042;9.092;2023-07-09T00:49:32;99351.72;;;27.36;40.92
15604;BME280;7902;49.042;9.092;2023-07-09T00:52:03;99363.00;;;27.20;41.63
15604;BME280;7902;49.042;9.092;2023-07-09T00:54:36;99358.00;;;27.24;41.50
15604;BME280;7902;49.042;9.092;2023-07-09T00:57:11;99368.00;;;27.17;41.66
15604;BME280;7902;49.042;9.092;2023-07-09T00:59:39;99366.72;;;27.13;42.08
15604;BME280;7902;49.042;9.092;2023-07-09T01:02:07;99368.59;;;27.19;42.06
15604;BME280;7902;49.042;9.092;2023-07-09T01:04:34;99358.44;;;27.21;41.61
15604;BME280;7902;49.042;9.092;2023-07-09T01:07:01;99365.91;;;27.19;41.81
15604;BME280;7902;49.042;9.092;2023-07-09T01:09:27;99365.09;;;27.05;41.79
15604;BME280;7902;49.042;9.092;2023-07-09T01:11:53;99362.00;;;27.01;42.06
15604;BME280;7902;49.042;9.092;2023-07-09T01:14:23;99362.19;;;26.93;42.97
15604;BME280;7902;49.042;9.092;2023-07-09T01:17:03;99368.03;;;26.97;42.41
15604;BME280;7902;49.042;9.092;2023-07-09T01:19:37;99367.59;;;26.93;42.64
15604;BME280;7902;49.042;9.092;2023-07-09T01:22:12;99369.44;;;26.80;42.91
15604;BME280;7902;49.042;9.092;2023-07-09T01:27:18;99365.53;;;26.62;43.60
15604;BME280;7902;49.042;9.092;2023-07-09T01:29:45;99370.09;;;26.69;43.46
15604;BME280;7902;49.042;9.092;2023-07-09T01:32:16;99369.25;;;26.68;43.47
15604;BME280;7902;49.042;9.092;2023-07-09T01:34:45;99377.94;;;26.70;43.53
15604;BME280;7902;49.042;9.092;2023-07-09T01:37:15;99376.31;;;26.69;43.06
15604;BME280;7902;49.042;9.092;2023-07-09T01:39:42;99378.78;;;26.71;43.24
15604;BME280;7902;49.042;9.092;2023-07-09T01:42:08;99369.25;;;26.75;43.32
15604;BME280;7902;49.042;9.092;2023-07-09T01:44:35;99371.53;;;26.71;43.06
15604;BME280;7902;49.042;9.092;2023-07-09T01:47:02;99369.25;;;26.68;43.51
15604;BME280;7902;49.042;9.092;2023-07-09T01:49:30;99373.41;;;26.71;43.30
15604;BME280;7902;49.042;9.092;2023-07-09T01:52:01;99364.06;;;26.67;43.14
15604;BME280;7902;49.042;9.092;2023-07-09T01:54:30;99373.19;;;26.65;43.52
15604;BME280;7902;49.042;9.092;2023-07-09T01:57:25;99381.28;;;26.65;43.48
15604;BME280;7902;49.042;9.092;2023-07-09T01:59:52;99381.06;;;26.67;43.25
15604;BME280;7902;49.042;9.092;2023-07-09T02:02:23;99377.13;;;26.56;43.30
15604;BME280;7902;49.042;9.092;2023-07-09T02:04:52;99378.38;;;26.47;43.35
15604;BME280;7902;49.042;9.092;2023-07-09T02:07:20;99378.59;;;26.39;43.61
15604;BME280;7902;49.042;9.092;2023-07-09T02:09:46;99380.88;;;26.49;43.47
15604;BME280;7902;49.042;9.092;2023-07-09T02:12:13;99385.84;;;26.45;43.75
15604;BME280;7902;49.042;9.092;2023-07-09T02:14:41;99382.50;;;26.56;43.40
15604;BME280;7902;49.042;9.092;2023-07-09T02:17:09;99387.09;;;26.49;43.72
15604;BME280;7902;49.042;9.092;2023-07-09T02:19:35;99377.13;;;26.43;43.69
15604;BME280;7902;49.042;9.092;2023-07-09T02:22:02;99380.66;;;26.44;43.91
15604;BME280;7902;49.042;9.092;2023-07-09T02:24:28;99384.56;;;26.28;44.15
15604;BME280;7902;49.042;9.092;2023-07-09T02:26:55;99380.19;;;26.20;44.58
15604;BME280;7902;49.042;9.092;2023-07-09T02:29:22;99385.75;;;26.06;44.88
15604;BME280;7902;49.042;9.092;2023-07-09T02:31:50;99376.03;;;26.11;44.74
15604;BME280;7902;49.042;9.092;2023-07-09T02:34:20;99385.75;;;26.06;44.63
15604;BME280;7902;49.042;9.092;2023-07-09T02:36:46;99383.88;;;26.06;44.72
15604;BME280;7902;49.042;9.092;2023-07-09T02:39:14;99389.47;;;25.98;45.06
15604;BME280;7902;49.042;9.092;2023-07-09T02:41:40;99386.16;;;26.03;44.84
15604;BME280;7902;49.042;9.092;2023-07-09T02:44:07;99385.94;;;25.98;44.97
15604;BME280;7902;49.042;9.092;2023-07-09T02:46:34;99391.50;;;25.96;45.12
15604;BME280;7902;49.042;9.092;2023-07-09T02:49:00;99389.88;;;26.02;45.07
15604;BME280;7902;49.042;9.092;2023-07-09T02:51:26;99395.88;;;25.97;45.58
15604;BME280;7902;49.042;9.092;2023-07-09T02:53:57;99392.97;;;25.99;44.97
15604;BME280;7902;49.042;9.092;2023-07-09T02:56:23;99394.00;;;26.04;45.07
15604;BME280;7902;49.042;9.092;2023-07-09T02:58:50;99401.06;;;26.05;45.01
15604;BME280;7902;49.042;9.092;2023-07-09T03:01:16;99400.00;;;26.00;45.07
15604;BME280;7902;49.042;9.092;2023-07-09T03:03:43;99398.16;;;25.94;45.09
15604;BME280;7902;49.042;9.092;2023-07-09T03:06:09;99395.84;;;25.91;45.32
15604;BME280;7902;49.042;9.092;2023-07-09T03:08:35;99405.13;;;25.82;45.53
15604;BME280;7902;49.042;9.092;2023-07-09T03:11:12;99409.03;;;25.72;45.69
15604;BME280;7902;49.042;9.092;2023-07-09T03:13:38;99408.00;;;25.73;46.14
15604;BME280;7902;49.042;9.092;2023-07-09T03:16:04;99408.72;;;25.54;46.06
15604;BME280;7902;49.042;9.092;2023-07-09T03:18:31;99406.28;;;25.59;45.80
15604;BME280;7902;49.042;9.092;2023-07-09T03:20:58;99415.31;;;25.52;46.02
15604;BME280;7902;49.042;9.092;2023-07-09T03:23:24;99417.56;;;25.48;46.27
15604;BME280;7902;49.042;9.092;2023-07-09T03:25:50;99408.28;;;25.51;46.19
15604;BME280;7902;49.042;9.092;2023-07-09T03:28:16;99409.91;;;25.45;46.32
15604;BME280;7902;49.042;9.092;2023-07-09T03:30:43;99403.03;;;25.43;46.45
15604;BME280;7902;49.042;9.092;2023-07-09T03:33:10;99408.47;;;25.49;46.15
15604;BME280;7902;49.042;9.092;2023-07-09T03:35:37;99414.13;;;25.54;46.18
15604;BME280;7902;49.042;9.092;2023-07-09T03:38:08;99414.53;;;25.58;46.00
15604;BME280;7902;49.042;9.092;2023-07-09T03:40:34;99414.94;;;25.55;45.88
15604;BME280;7902;49.042;9.092;2023-07-09T03:43:00;99419.91;;;25.58;46.14
15604;BME280;7902;49.042;9.092;2023-07-09T03:45:26;99416.63;;;25.56;45.82
15604;BME280;7902;49.042;9.092;2023-07-09T03:47:52;99420.13;;;25.56;46.40
15604;BME280;7902;49.042;9.092;2023-07-09T03:50:18;99427.47;;;25.48;46.40
15604;BME280;7902;49.042;9.092;2023-07-09T03:52:44;99430.16;;;25.41;46.45
15604;BME280;7902;49.042;9.092;2023-07-09T03:55:10;99427.94;;;25.51;46.24
15604;BME280;7902;49.042;9.092;2023-07-09T03:57:36;99430.63;;;25.51;46.07
15604;BME280;7902;49.042;9.092;2023-07-09T04:00:04;99429.78;;;25.51;46.12
15604;BME280;7902;49.042;9.092;2023-07-09T04:02:31;99432.53;;;25.57;46.02
15604;BME280;7902;49.042;9.092;2023-07-09T04:04:57;99433.19;;;25.59;46.07
15604;BME280;7902;49.042;9.092;2023-07-09T04:07:22;99431.56;;;25.65;45.94
15604;BME280;7902;49.042;9.092;2023-07-09T04:09:48;99426.53;;;25.55;45.99
15604;BME280;7902;49.042;9.092;2023-07-09T04:12:14;99438.56;;;25.59;45.97
15604;BME280;7902;49.042;9.092;2023-07-09T04:14:40;99426.56;;;25.62;45.97
15604;BME280;7902;49.042;9.092;2023-07-09T04:17:06;99427.38;;;25.62;46.02
15604;BME280;7902;49.042;9.092;2023-07-09T04:19:32;99430.47;;;25.59;46.18
15604;BME280;7902;49.042;9.092;2023-07-09T04:21:58;99429.06;;;25.63;46.01
15604;BME280;7902;49.042;9.092;2023-07-09T04:24:24;99429.88;;;25.64;46.02
15604;BME280;7902;49.042;9.092;2023-07-09T04:26:50;99436.94;;;25.65;46.07
15604;BME280;7902;49.042;9.092;2023-07-09T04:29:23;99429.69;;;25.65;46.26
15604;BME280;7902;49.042;9.092;2023-07-09T04:31:49;99436.09;;;25.71;46.35
15604;BME280;7902;49.042;9.092;2023-07-09T04:34:15;99434.44;;;25.63;46.33
15604;BME280;7902;49.042;9.092;2023-07-09T04:36:41;99444.41;;;25.69;46.33
15604;BME280;7902;49.042;9.092;2023-07-09T04:39:07;99437.34;;;25.68;46.70
15604;BME280;7902;49.042;9.092;2023-07-09T04:41:33;99445.66;;;25.73;46.33
15604;BME280;7902;49.042;9.092;2023-07-09T04:43:59;99448.34;;;25.73;46.39
15604;BME280;7902;49.042;9.092;2023-07-09T04:46:25;99453.53;;;25.75;46.51
15604;BME280;7902;49.042;9.092;2023-07-09T04:48:50;99444.59;;;25.68;46.63
15604;BME280;7902;49.042;9.092;2023-07-09T04:51:16;99452.28;;;25.77;46.27
15604;BME280;7902;49.042;9.092;2023-07-09T04:53:43;99452.09;;;25.79;46.49
15604;BME280;7902;49.042;9.092;2023-07-09T04:56:09;99450.72;;;25.90;46.11
15604;BME280;7902;49.042;9.092;2023-07-09T04:58:36;99447.56;;;25.86;46.63
15604;BME280;7902;49.042;9.092;2023-07-09T05:01:01;99451.53;;;25.97;46.10
15604;BME280;7902;49.042;9.092;2023-07-09T05:03:27;99444.91;;;25.99;46.10
15604;BME280;7902;49.042;9.092;2023-07-09T05:05:53;99457.16;;;26.02;46.23
15604;BME280;7902;49.042;9.092;2023-07-09T05:08:19;99455.75;;;26.12;46.01
15604;BME280;7902;49.042;9.092;2023-07-09T05:10:50;99460.38;;;26.25;46.38
15604;BME280;7902;49.042;9.092;2023-07-09T05:13:17;99461.75;;;26.14;47.24
15604;BME280;7902;49.042;9.092;2023-07-09T05:15:45;99457.41;;;26.20;47.05
15604;BME280;7902;49.042;9.092;2023-07-09T05:18:15;99463.47;;;26.29;47.07
15604;BME280;7902;49.042;9.092;2023-07-09T05:20:41;99458.72;;;26.37;46.90
15604;BME280;7902;49.042;9.092;2023-07-09T05:23:10;99464.94;;;26.31;47.15
15604;BME280;7902;49.042;9.092;2023-07-09T05:25:36;99464.94;;;26.31;47.91
15604;BME280;7902;49.042;9.092;2023-07-09T05:28:03;99465.38;;;26.48;46.91
15604;BME280;7902;49.042;9.092;2023-07-09T05:30:30;99469.31;;;26.52;47.41
15604;BME280;7902;49.042;9.092;2023-07-09T05:32:56;99471.63;;;26.55;47.01
15604;BME280;7902;49.042;9.092;2023-07-09T05:35:24;99469.13;;;26.53;46.66
15604;BME280;7902;49.042;9.092;2023-07-09T05:37:52;99467.88;;;26.49;47.79
15604;BME280;7902;49.042;9.092;2023-07-09T05:40:18;99466.63;;;26.52;47.49
15604;BME280;7902;49.042;9.092;2023-07-09T05:42:44;99463.34;;;26.63;46.88
15604;BME280;7902;49.042;9.092;2023-07-09T05:45:10;99468.53;;;26.64;47.45
15604;BME280;7902;49.042;9.092;2023-07-09T05:47:36;99468.75;;;26.70;46.85
15604;BME280;7902;49.042;9.092;2023-07-09T05:50:03;99457.59;;;26.86;46.07
15604;BME280;7902;49.042;9.092;2023-07-09T05:52:29;99457.97;;;26.83;46.24
15604;BME280;7902;49.042;9.092;2023-07-09T05:54:55;99468.34;;;26.86;46.60
15604;BME280;7902;49.042;9.092;2023-07-09T05:57:21;99469.81;;;26.95;46.40
15604;BME280;7902;49.042;9.092;2023-07-09T05:59:47;99471.69;;;26.88;46.63
15604;BME280;7902;49.042;9.092;2023-07-09T06:02:18;99470.44;;;27.03;46.27
15604;BME280;7902;49.042;9.092;2023-07-09T06:04:44;99468.38;;;27.05;46.00
15604;BME280;7902;49.042;9.092;2023-07-09T06:07:12;99461.50;;;27.03;46.76
15604;BME280;7902;49.042;9.092;2023-07-09T06:09:39;99470.00;;;27.13;46.65
15604;BME280;7902;49.042;9.092;2023-07-09T06:12:06;99462.13;;;27.18;45.90
15604;BME280;7902;49.042;9.092;2023-07-09T06:14:32;99467.53;;;27.25;45.90
15604;BME280;7902;49.042;9.092;2023-07-09T06:17:00;99470.63;;;27.22;46.34
15604;BME280;7902;49.042;9.092;2023-07-09T06:19:26;99473.50;;;27.27;46.48
15604;BME280;7902;49.042;9.092;2023-07-09T06:21:52;99468.31;;;27.32;46.04
15604;BME280;7902;49.042;9.092;2023-07-09T06:24:18;99472.06;;;27.37;45.70
15604;BME280;7902;49.042;9.092;2023-07-09T06:26:44;99475.78;;;27.43;45.64
15604;BME280;7902;49.042;9.092;2023-07-09T06:29:10;99473.91;;;27.43;45.23
15604;BME280;7902;49.042;9.092;2023-07-09T06:31:36;99468.13;;;27.33;45.81
15604;BME280;7902;49.042;9.092;2023-07-09T06:34:03;99475.59;;;27.38;45.76
15604;BME280;7902;49.042;9.092;2023-07-09T06:36:29;99478.28;;;27.51;45.82
15604;BME280;7902;49.042;9.092;2023-07-09T06:38:55;99482.84;;;27.50;45.49
15604;BME280;7902;49.042;9.092;2023-07-09T06:41:21;99479.31;;;27.63;44.69
15604;BME280;7902;49.042;9.092;2023-07-09T06:43:47;99474.09;;;27.68;44.29
15604;BME280;7902;49.042;9.092;2023-07-09T06:46:14;99476.38;;;27.78;44.29
15604;BME280;7902;49.042;9.092;2023-07-09T06:48:40;99473.81;;;27.83;43.61
15604;BME280;7902;49.042;9.092;2023-07-09T06:51:06;99473.63;;;27.84;43.48
15604;BME280;7902;49.042;9.092;2023-07-09T06:53:32;99475.88;;;27.94;43.58
15604;BME280;7902;49.042;9.092;2023-07-09T06:55:58;99481.06;;;27.89;44.45
15604;BME280;7902;49.042;9.092;2023-07-09T06:58:27;99480.66;;;27.92;43.65
15604;BME280;7902;49.042;9.092;2023-07-09T07:00:54;99482.13;;;27.88;44.34
15604;BME280;7902;49.042;9.092;2023-07-09T07:03:21;99479.78;;;28.05;43.58
15604;BME280;7902;49.042;9.092;2023-07-09T07:05:53;99480.59;;;28.12;43.96
15604;BME280;7902;49.042;9.092;2023-07-09T07:08:21;99480.16;;;28.08;44.40
15604;BME280;7902;49.042;9.092;2023-07-09T07:10:50;99475.19;;;28.18;43.96
15604;BME280;7902;49.042;9.092;2023-07-09T07:13:21;99486.75;;;28.25;43.96
15604;BME280;7902;49.042;9.092;2023-07-09T07:15:48;99479.94;;;28.16;43.98
15604;BME280;7902;49.042;9.092;2023-07-09T07:18:15;99479.47;;;28.26;43.59
15604;BME280;7902;49.042;9.092;2023-07-09T07:20:41;99479.00;;;28.35;44.15
15604;BME280;7902;49.042;9.092;2023-07-09T07:23:08;99473.59;;;28.42;43.54
15604;BME280;7902;49.042;9.092;2023-07-09T07:25:34;99476.25;;;28.49;43.39
15604;BME280;7902;49.042;9.092;2023-07-09T07:27:59;99474.59;;;28.48;43.44
15604;BME280;7902;49.042;9.092;2023-07-09T07:30:25;99472.00;;;28.59;43.39
15604;BME280;7902;49.042;9.092;2023-07-09T07:32:51;99467.41;;;28.66;42.99
15604;BME280;7902;49.042;9.092;2023-07-09T07:35:17;99467.63;;;28.65;43.96
15604;BME280;7902;49.042;9.092;2023-07-09T07:37:44;99467.59;;;28.71;43.71
15604;BME280;7902;49.042;9.092;2023-07-09T07:40:11;99464.06;;;28.71;43.20
15604;BME280;7902;49.042;9.092;2023-07-09T07:42:37;99462.31;;;28.83;42.93
15604;BME280;7902;49.042;9.092;2023-07-09T07:45:03;99466.50;;;28.79;43.22
15604;BME280;7902;49.042;9.092;2023-07-09T07:47:29;99466.22;;;28.87;42.65
15604;BME280;7902;49.042;9.092;2023-07-09T07:49:56;99459.22;;;29.04;42.64
15604;BME280;7902;49.042;9.092;2023-07-09T07:52:23;99459.44;;;29.03;42.55
15604;BME280;7902;49.042;9.092;2023-07-09T07:54:50;99458.03;;;29.00;42.59
15604;BME280;7902;49.042;9.092;2023-07-09T07:57:16;99452.91;;;29.10;42.38
15604;BME280;7902;49.042;9.092;2023-07-09T07:59:42;99458.31;;;29.10;42.44
15604;BME280;7902;49.042;9.092;2023-07-09T08:02:12;99454.06;;;29.21;41.77
15604;BME280;7902;49.042;9.092;2023-07-09T08:04:39;99453.84;;;29.22;41.75
15604;BME280;7902;49.042;9.092;2023-07-09T08:07:07;99450.59;;;29.39;41.90
15604;BME280;7902;49.042;9.092;2023-07-09T08:09:34;99444.50;;;29.43;41.27
15604;BME280;7902;49.042;9.092;2023-07-09T08:12:01;99450.00;;;29.37;41.53
15604;BME280;7902;49.042;9.092;2023-07-09T08:14:27;99437.38;;;29.67;41.70
15604;BME280;7902;49.042;9.092;2023-07-09T08:16:53;99448.97;;;29.56;41.24
15604;BME280;7902;49.042;9.092;2023-07-09T08:19:19;99447.81;;;29.63;41.02
15604;BME280;7902;49.042;9.092;2023-07-09T08:21:45;99442.19;;;29.65;41.13
15604;BME280;7902;49.042;9.092;2023-07-09T08:24:12;99438.97;;;29.75;40.80
15604;BME280;7902;49.042;9.092;2023-07-09T08:26:39;99440.63;;;29.76;40.55
15604;BME280;7902;49.042;9.092;2023-07-09T08:29:05;99434.38;;;29.75;40.59
15604;BME280;7902;49.042;9.092;2023-07-09T08:31:31;99440.06;;;29.85;40.72
15604;BME280;7902;49.042;9.092;2023-07-09T08:33:57;99443.69;;;29.97;40.34
15604;BME280;7902;49.042;9.092;2023-07-09T08:36:23;99435.91;;;29.89;40.45
15604;BME280;7902;49.042;9.092;2023-07-09T08:38:49;99440.13;;;30.15;39.49
15604;BME280;7902;49.042;9.092;2023-07-09T08:44:29;99437.88;;;30.12;39.43
15604;BME280;7902;49.042;9.092;2023-07-09T08:49:41;99441.78;;;30.16;38.75
15604;BME280;7902;49.042;9.092;2023-07-09T08:52:14;99430.75;;;30.29;38.98
15604;BME280;7902;49.042;9.092;2023-07-09T08:54:42;99430.97;;;30.46;38.70
15604;BME280;7902;49.042;9.092;2023-07-09T08:57:26;99435.00;;;30.55;38.46
15604;BME280;7902;49.042;9.092;2023-07-09T09:00:02;99442.00;;;30.74;38.32
15604;BME280;7902;49.042;9.092;2023-07-09T09:02:41;99443.06;;;30.73;37.88
15604;BME280;7902;49.042;9.092;2023-07-09T09:05:13;99442.25;;;30.96;37.01
15604;BME280;7902;49.042;9.092;2023-07-09T09:07:42;99438.84;;;31.01;38.01
15604;BME280;7902;49.042;9.092;2023-07-09T09:10:15;99439.41;;;30.91;37.78
15604;BME280;7902;49.042;9.092;2023-07-09T09:12:55;99430.78;;;30.94;38.06
15604;BME280;7902;49.042;9.092;2023-07-09T09:15:25;99437.91;;;31.18;37.42
15604;BME280;7902;49.042;9.092;2023-07-09T09:17:58;99429.91;;;31.12;37.42
15604;BME280;7902;49.042;9.092;2023-07-09T09:20:26;99428.59;;;31.14;37.34
15604;BME280;7902;49.042;9.092;2023-07-09T09:25:34;99438.75;;;31.30;36.87
15604;BME280;7902;49.042;9.092;2023-07-09T09:28:02;99431.44;;;31.31;37.02
15604;BME280;7902;49.042;9.092;2023-07-09T09:30:29;99426.72;;;31.26;37.82
15604;BME280;7902;49.042;9.092;2023-07-09T09:32:58;99426.94;;;31.36;37.46
15604;BME280;7902;49.042;9.092;2023-07-09T09:35:30;99426.59;;;31.33;37.60
15604;BME280;7902;49.042;9.092;2023-07-09T09:37:58;99424.94;;;31.44;37.73
15604;BME280;7902;49.042;9.092;2023-07-09T09:40:27;99417.53;;;31.79;36.57
15604;BME280;7902;49.042;9.092;2023-07-09T09:42:56;99428.78;;;31.83;36.90
15604;BME280;7902;49.042;9.092;2023-07-09T09:45:33;99423.91;;;31.85;37.21
15604;BME280;7902;49.042;9.092;2023-07-09T09:48:01;99424.72;;;31.97;36.43
15604;BME280;7902;49.042;9.092;2023-07-09T09:50:32;99436.31;;;31.92;36.86
15604;BME280;7902;49.042;9.092;2023-07-09T09:52:59;99435.31;;;31.98;36.06
15604;BME280;7902;49.042;9.092;2023-07-09T09:55:29;99428.94;;;32.04;35.75
15604;BME280;7902;49.042;9.092;2023-07-09T09:57:55;99431.72;;;32.21;34.92
15604;BME280;7902;49.042;9.092;2023-07-09T10:00:26;99423.75;;;32.31;35.01
15604;BME280;7902;49.042;9.092;2023-07-09T10:02:58;99421.44;;;32.23;35.88
15604;BME280;7902;49.042;9.092;2023-07-09T10:05:31;99423.41;;;32.28;35.75
15604;BME280;7902;49.042;9.092;2023-07-09T10:08:08;99418.66;;;32.35;35.39
15604;BME280;7902;49.042;9.092;2023-07-09T10:10:35;99417.53;;;32.47;34.91
15604;BME280;7902;49.042;9.092;2023-07-09T10:15:45;99405.31;;;32.50;34.79
15604;BME280;7902;49.042;9.092;2023-07-09T10:21:25;99409.63;;;32.62;34.51
15604;BME280;7902;49.042;9.092;2023-07-09T10:24:00;99412.53;;;32.73;34.79
15604;BME280;7902;49.042;9.092;2023-07-09T10:26:36;99398.28;;;32.82;33.85
15604;BME280;7902;49.042;9.092;2023-07-09T10:34:32;99388.38;;;33.09;32.78
15604;BME280;7902;49.042;9.092;2023-07-09T10:39:46;99380.63;;;33.18;31.98
15604;BME280;7902;49.042;9.092;2023-07-09T10:42:25;99382.47;;;33.34;32.21
15604;BME280;7902;49.042;9.092;2023-07-09T10:45:02;99384.69;;;33.37;32.13
15604;BME280;7902;49.042;9.092;2023-07-09T10:47:36;99384.13;;;33.35;32.55
15604;BME280;7902;49.042;9.092;2023-07-09T10:50:05;99378.88;;;33.12;31.90
15604;BME280;7902;49.042;9.092;2023-07-09T10:52:41;99381.09;;;33.15;32.78
15604;BME280;7902;49.042;9.092;2023-07-09T10:55:16;99377.47;;;33.26;31.70
15604;BME280;7902;49.042;9.092;2023-07-09T10:57:54;99372.41;;;33.35;31.65
15604;BME280;7902;49.042;9.092;2023-07-09T11:00:23;99362.84;;;33.32;31.34
15604;BME280;7902;49.042;9.092;2023-07-09T11:02:58;99363.47;;;33.39;30.79
15604;BME280;7902;49.042;9.092;2023-07-09T11:05:25;99364.88;;;33.64;30.66
15604;BME280;7902;49.042;9.092;2023-07-09T11:08:00;99363.94;;;33.75;30.88
15604;BME280;7902;49.042;9.092;2023-07-09T11:10:32;99359.63;;;33.79;30.04
15604;BME280;7902;49.042;9.092;2023-07-09T11:13:04;99351.50;;;33.84;30.06
15604;BME280;7902;49.042;9.092;2023-07-09T11:15:35;99351.97;;;33.76;29.99
15604;BME280;7902;49.042;9.092;2023-07-09T11:18:05;99349.44;;;33.96;29.78
15604;BME280;7902;49.042;9.092;2023-07-09T11:20:34;99336.16;;;34.00;29.84
15604;BME280;7902;49.042;9.092;2023-07-09T11:23:05;99346.81;;;34.28;29.57
15604;BME280;7902;49.042;9.092;2023-07-09T11:25:44;99358.22;;;34.25;29.37
15604;BME280;7902;49.042;9.092;2023-07-09T11:28:11;99350.66;;;34.32;28.85
15604;BME280;7902;49.042;9.092;2023-07-09T11:30:52;99347.84;;;34.54;29.52
15604;BME280;7902;49.042;9.092;2023-07-09T11:33:28;99342.13;;;34.55;29.26
15604;BME280;7902;49.042;9.092;2023-07-09T11:36:10;99347.03;;;34.58;28.78
15604;BME280;7902;49.042;9.092;2023-07-09T11:38:42;99343.44;;;34.79;28.69
15604;BME280;7902;49.042;9.092;2023-07-09T11:46:32;99329.28;;;34.51;28.15
15604;BME280;7902;49.042;9.092;2023-07-09T11:48:58;99328.66;;;34.44;28.32
15604;BME280;7902;49.042;9.092;2023-07-09T11:51:38;99320.13;;;34.67;28.19
15604;BME280;7902;49.042;9.092;2023-07-09T11:54:11;99326.91;;;34.64;27.71
15604;BME280;7902;49.042;9.092;2023-07-09T11:56:38;99327.47;;;34.66;28.40
15604;BME280;7902;49.042;9.092;2023-07-09T11:59:05;99330.44;;;34.97;27.25
15604;BME280;7902;49.042;9.092;2023-07-09T12:01:36;99325.16;;;34.85;28.33
15604;BME280;7902;49.042;9.092;2023-07-09T12:04:05;99325.78;;;34.97;27.34
15604;BME280;7902;49.042;9.092;2023-07-09T12:06:32;99321.91;;;34.88;27.40
15604;BME280;7902;49.042;9.092;2023-07-09T12:08:59;99321.69;;;35.00;27.56
15604;BME280;7902;49.042;9.092;2023-07-09T12:11:31;99319.75;;;34.95;26.90
15604;BME280;7902;49.042;9.092;2023-07-09T12:14:03;99312.63;;;35.41;27.48
15604;BME280;7902;49.042;9.092;2023-07-09T12:16:33;99307.66;;;35.23;26.12
15604;BME280;7902;49.042;9.092;2023-07-09T12:19:00;99309.09;;;35.41;26.34
15604;BME280;7902;49.042;9.092;2023-07-09T12:21:26;99310.97;;;35.30;27.00
15604;BME280;7902;49.042;9.092;2023-07-09T12:23:54;99319.22;;;35.45;26.82
15604;BME280;7902;49.042;9.092;2023-07-09T12:26:22;99306.38;;;35.46;25.72
15604;BME280;7902;49.042;9.092;2023-07-09T12:28:56;99310.41;;;35.33;26.37
15604;BME280;7902;49.042;9.092;2023-07-09T12:31:28;99297.03;;;35.32;26.29
15604;BME280;7902;49.042;9.092;2023-07-09T12:33:55;99297.66;;;35.54;25.24
15604;BME280;7902;49.042;9.092;2023-07-09T12:36:24;99290.28;;;35.64;25.07
15604;BME280;7902;49.042;9.092;2023-07-09T12:38:53;99290.09;;;35.76;24.79
15604;BME280;7902;49.042;9.092;2023-07-09T12:41:28;99280.56;;;35.99;26.05
15604;BME280;7902;49.042;9.092;2023-07-09T12:43:55;99286.56;;;35.96;25.65
15604;BME280;7902;49.042;9.092;2023-07-09T12:46:22;99280.25;;;35.75;25.85
15604;BME280;7902;49.042;9.092;2023-07-09T12:48:49;99285.19;;;35.73;25.67
15604;BME280;7902;49.042;9.092;2023-07-09T12:51:22;99273.69;;;35.66;25.91
15604;BME280;7902;49.042;9.092;2023-07-09T12:54:11;99270.69;;;35.73;25.54
15604;BME280;7902;49.042;9.092;2023-07-09T12:56:38;99269.00;;;35.61;25.48
15604;BME280;7902;49.042;9.092;2023-07-09T13:02:17;99267.16;;;35.82;25.24
15604;BME280;7902;49.042;9.092;2023-07-09T13:04:44;99251.88;;;36.27;25.53
15604;BME280;7902;49.042;9.092;2023-07-09T13:07:33;99255.16;;;36.19;24.97
15604;BME280;7902;49.042;9.092;2023-07-09T13:10:06;99252.41;;;36.49;24.16
15604;BME280;7902;49.042;9.092;2023-07-09T13:12:33;99249.69;;;36.34;25.00
15604;BME280;7902;49.042;9.092;2023-07-09T13:14:59;99246.94;;;36.49;24.70
15604;BME280;7902;49.042;9.092;2023-07-09T13:17:29;99239.81;;;36.58;24.44
15604;BME280;7902;49.042;9.092;2023-07-09T13:19:56;99239.31;;;36.21;24.65
15604;BME280;7902;49.042;9.092;2023-07-09T13:22:23;99241.69;;;36.78;25.00
15604;BME280;7902;49.042;9.092;2023-07-09T13:24:50;99235.72;;;36.45;24.71
15604;BME280;7902;49.042;9.092;2023-07-09T13:27:17;99237.09;;;36.63;24.43
15604;BME280;7902;49.042;9.092;2023-07-09T13:29:43;99238.94;;;36.78;24.28
15604;BME280;7902;49.042;9.092;2023-07-09T13:32:14;99229.94;;;36.77;24.74
15604;BME280;7902;49.042;9.092;2023-07-09T13:34:40;99230.38;;;37.05;24.35
15604;BME280;7902;49.042;9.092;2023-07-09T13:37:15;99231.81;;;36.87;23.90
15604;BME280;7902;49.042;9.092;2023-07-09T13:39:42;99228.31;;;36.71;24.57
15604;BME280;7902;49.042;9.092;2023-07-09T13:42:12;99230.78;;;36.68;24.19
15604;BME280;7902;49.042;9.092;2023-07-09T13:44:40;99229.16;;;36.62;23.90
15604;BME280;7902;49.042;9.092;2023-07-09T13:47:14;99229.97;;;36.62;24.42
15604;BME280;7902;49.042;9.092;2023-07-09T13:49:43;99236.53;;;36.66;23.62
15604;BME280;7902;49.042;9.092;2023-07-09T13:52:18;99221.75;;;36.72;23.35
15604;BME280;7902;49.042;9.092;2023-07-09T13:54:46;99223.81;;;37.06;23.80